Time;durP1;ratioP1;P1;durP2;ratioP2;P2;SDS_P1;SDS_P2;PMS_P1;PMS_P2;Temp;Humidity;BMP_temperature;BMP_pressure;BME280_temperature;BME280_humidity;BME280_pressure;Samples;Min_cycle;Max_cycle;Signal;HPM_P1;HPM_P2
2023/12/15 00:01:25;;;;;;;;;;;;;;;4.83;100.00;102662.28;5057791;28;19931;-77
2023/12/15 00:03:50;;;;;;;;;;;;;;;4.85;100.00;102663.22;5066735;28;19924;-77
2023/12/15 00:06:15;;;;;;;;;;;;;;;4.85;100.00;102665.81;5068126;28;20303;-77
2023/12/15 00:08:42;;;;;;;;;;;;;;;4.86;100.00;102670.19;5067171;28;19921;-77
2023/12/15 00:11:07;;;;;;;;;;;;;;;4.87;100.00;102671.09;5048372;28;20406;-77
2023/12/15 00:13:32;;;;;;;;;;;;;;;4.88;100.00;102675.44;5067363;28;19920;-76
2023/12/15 00:15:57;;;;;;;;;;;;;;;4.90;100.00;102689.41;5048000;28;19928;-76
2023/12/15 00:18:23;;;;;;;;;;;;;;;4.91;100.00;102683.34;5054324;28;19928;-76
2023/12/15 00:20:48;;;;;;;;;;;;;;;4.94;100.00;102693.91;5046130;28;19928;-76
2023/12/15 00:23:14;;;;;;;;;;;;;;;4.93;100.00;102699.91;5049219;28;20259;-75
2023/12/15 00:25:39;;;;;;;;;;;;;;;4.95;100.00;102694.78;5046590;28;19968;-77
2023/12/15 00:28:04;;;;;;;;;;;;;;;4.93;100.00;102702.50;5046014;28;20417;-75
2023/12/15 00:30:30;;;;;;;;;;;;;;;4.93;100.00;102706.81;5075095;28;20035;-77
2023/12/15 00:32:55;;;;;;;;;;;;;;;4.93;100.00;102702.50;5054522;28;19926;-75
2023/12/15 00:35:20;;;;;;;;;;;;;;;4.93;100.00;102697.31;5034945;28;19921;-79
2023/12/15 00:37:46;;;;;;;;;;;;;;;4.93;100.00;102696.41;5070694;28;19921;-79
2023/12/15 00:40:11;;;;;;;;;;;;;;;4.94;100.00;102698.19;5056557;28;20362;-79
2023/12/15 00:42:39;;;;;;;;;;;;;;;4.95;100.00;102692.19;5058506;28;19999;-78
2023/12/15 00:45:04;;;;;;;;;;;;;;;4.94;100.00;102706.91;5062167;28;19923;-79
2023/12/15 00:47:30;;;;;;;;;;;;;;;4.97;100.00;102703.50;5062769;28;19924;-78
2023/12/15 00:49:59;;;;;;;;;;;;;;;4.97;100.00;102698.31;5047654;28;19925;-79
2023/12/15 00:52:24;;;;;;;;;;;;;;;5.00;100.00;102693.28;5049314;28;19920;-79
2023/12/15 00:54:49;;;;;;;;;;;;;;;4.99;100.00;102696.69;5043257;28;19929;-79
2023/12/15 00:57:15;;;;;;;;;;;;;;;4.99;100.00;102696.69;5050567;28;20304;-79
2023/12/15 00:59:40;;;;;;;;;;;;;;;5.01;100.00;102702.81;5063755;28;19921;-79
2023/12/15 01:02:07;;;;;;;;;;;;;;;5.03;100.00;102711.59;5064309;28;19959;-79
2023/12/15 01:04:33;;;;;;;;;;;;;;;5.04;100.00;102710.72;5059794;28;20086;-78
2023/12/15 01:06:58;;;;;;;;;;;;;;;5.05;100.00;102717.72;5062569;28;20326;-79
2023/12/15 01:09:23;;;;;;;;;;;;;;;5.06;100.00;102713.38;5069817;28;19920;-79
2023/12/15 01:11:49;;;;;;;;;;;;;;;5.08;100.00;102723.03;5044663;28;19928;-79
2023/12/15 01:14:15;;;;;;;;;;;;;;;5.09;100.00;102735.22;5046173;28;19925;-79
2023/12/15 01:16:47;;;;;;;;;;;;;;;5.11;100.00;102732.66;5072536;28;19935;-79
2023/12/15 01:19:12;;;;;;;;;;;;;;;5.11;100.00;102725.75;5051641;28;19928;-79
2023/12/15 01:21:37;;;;;;;;;;;;;;;5.14;100.00;102736.31;5050286;28;19921;-79
2023/12/15 01:24:03;;;;;;;;;;;;;;;5.14;100.00;102733.69;5051428;28;19921;-79
2023/12/15 01:26:28;;;;;;;;;;;;;;;5.17;100.00;102733.81;5039705;28;19960;-79
2023/12/15 01:28:57;;;;;;;;;;;;;;;5.16;100.00;102742.44;5056400;28;19924;-79
2023/12/15 01:31:22;;;;;;;;;;;;;;;5.18;100.00;102739.91;5055373;28;19951;-80
2023/12/15 01:33:47;;;;;;;;;;;;;;;5.18;100.00;102748.56;5058350;28;20022;-79
2023/12/15 01:36:13;;;;;;;;;;;;;;;5.20;100.00;102749.53;5054936;28;19940;-79
2023/12/15 01:38:39;;;;;;;;;;;;;;;5.20;100.00;102746.94;5052510;28;19921;-80
2023/12/15 01:41:05;;;;;;;;;;;;;;;5.23;100.00;102745.28;5071056;28;19963;-80
2023/12/15 01:43:30;;;;;;;;;;;;;;;5.24;100.00;102754.84;5054947;28;19924;-80
2023/12/15 01:45:55;;;;;;;;;;;;;;;5.23;100.00;102745.28;5058877;28;20374;-79
2023/12/15 01:48:21;;;;;;;;;;;;;;;5.24;100.00;102760.06;5055072;28;19916;-80
2023/12/15 01:50:47;;;;;;;;;;;;;;;5.24;100.00;102754.84;5050103;28;20290;-80
2023/12/15 01:53:12;;;;;;;;;;;;;;;5.24;100.00;102750.53;5055942;28;19928;-79
2023/12/15 01:55:37;;;;;;;;;;;;;;;5.25;100.00;102756.63;5047124;28;19921;-80
2023/12/15 01:58:03;;;;;;;;;;;;;;;5.26;100.00;102761.00;5044138;28;19921;-80
2023/12/15 02:00:28;;;;;;;;;;;;;;;5.28;100.00;102767.16;5053844;28;20002;-80
2023/12/15 02:02:54;;;;;;;;;;;;;;;5.29;100.00;102769.81;5066770;28;19921;-80
2023/12/15 02:05:20;;;;;;;;;;;;;;;5.29;100.00;102774.16;5045748;28;19925;-80
2023/12/15 02:07:46;;;;;;;;;;;;;;;5.29;100.00;102771.53;5050267;28;20389;-80
2023/12/15 02:10:11;;;;;;;;;;;;;;;5.28;100.00;102773.22;5039558;28;19917;-80
2023/12/15 02:12:38;;;;;;;;;;;;;;;5.30;100.00;102775.91;5069276;28;19925;-80
2023/12/15 02:15:03;;;;;;;;;;;;;;;5.30;100.00;102765.50;5040727;28;19925;-80
2023/12/15 02:17:28;;;;;;;;;;;;;;;5.30;100.00;102768.09;5061354;28;19917;-80
2023/12/15 02:19:54;;;;;;;;;;;;;;;5.30;100.00;102771.59;5054719;28;20012;-80
2023/12/15 02:22:26;;;;;;;;;;;;;;;5.31;100.00;102773.34;5046935;28;20298;-80
2023/12/15 02:24:52;;;;;;;;;;;;;;;5.31;100.00;102775.97;5069744;28;20397;-80
2023/12/15 02:27:17;;;;;;;;;;;;;;;5.32;100.00;102776.88;5072194;28;19921;-80
2023/12/15 02:29:42;;;;;;;;;;;;;;;5.32;100.00;102782.94;5059005;28;19928;-80
2023/12/15 02:32:08;;;;;;;;;;;;;;;5.33;100.00;102797.72;5060991;28;19925;-80
2023/12/15 02:34:33;;;;;;;;;;;;;;;5.33;100.00;102807.22;5057537;28;19937;-78
2023/12/15 02:36:58;;;;;;;;;;;;;;;5.33;100.00;102802.00;5053278;28;19920;-78
2023/12/15 02:39:23;;;;;;;;;;;;;;;5.34;100.00;102814.19;5053356;28;20263;-78
2023/12/15 02:41:50;;;;;;;;;;;;;;;5.33;100.00;102808.13;5052601;28;19943;-78
2023/12/15 02:44:15;;;;;;;;;;;;;;;5.36;100.00;102817.75;5062941;28;20267;-78
2023/12/15 02:46:40;;;;;;;;;;;;;;;5.36;100.00;102815.16;5055735;28;19934;-78
2023/12/15 02:49:06;;;;;;;;;;;;;;;5.36;100.00;102821.25;5059777;28;19967;-78
2023/12/15 02:51:31;;;;;;;;;;;;;;;5.36;100.00;102823.84;5056482;28;20298;-78
2023/12/15 02:53:57;;;;;;;;;;;;;;;5.36;100.00;102826.44;5058562;28;20027;-78
2023/12/15 02:56:23;;;;;;;;;;;;;;;5.37;100.00;102824.72;5065059;28;19916;-78
2023/12/15 02:58:48;;;;;;;;;;;;;;;5.38;100.00;102824.78;5052567;28;19917;-78
2023/12/15 03:01:13;;;;;;;;;;;;;;;5.40;100.00;102834.38;5058020;28;19959;-78
2023/12/15 03:03:39;;;;;;;;;;;;;;;5.39;100.00;102838.69;5053184;28;20378;-78
2023/12/15 03:06:04;;;;;;;;;;;;;;;5.40;100.00;102832.63;5037309;28;19929;-78
2023/12/15 03:08:29;;;;;;;;;;;;;;;5.41;100.00;102837.03;5054243;28;19943;-79
2023/12/15 03:10:57;;;;;;;;;;;;;;;5.42;100.00;102849.22;5050282;28;19921;-78
2023/12/15 03:13:23;;;;;;;;;;;;;;;5.41;100.00;102847.44;5052600;28;19928;-78
2023/12/15 03:15:48;;;;;;;;;;;;;;;5.44;100.00;102846.69;5060105;28;19928;-78
2023/12/15 03:18:13;;;;;;;;;;;;;;;5.44;100.00;102846.69;5059628;28;20293;-78
2023/12/15 03:20:39;;;;;;;;;;;;;;;5.46;100.00;102853.72;5037902;28;19925;-78
2023/12/15 03:23:04;;;;;;;;;;;;;;;5.46;100.00;102855.41;5050061;28;20007;-78
2023/12/15 03:25:29;;;;;;;;;;;;;;;5.46;100.00;102866.72;5052937;28;20012;-78
2023/12/15 03:27:57;;;;;;;;;;;;;;;5.47;100.00;102863.28;5030645;28;19956;-78
2023/12/15 03:30:23;;;;;;;;;;;;;;;5.50;100.00;102863.44;5050518;28;19928;-77
2023/12/15 03:32:49;;;;;;;;;;;;;;;5.47;100.00;102863.28;5058391;28;19933;-78
2023/12/15 03:35:14;;;;;;;;;;;;;;;5.48;100.00;102874.59;5051522;28;19920;-78
2023/12/15 03:37:40;;;;;;;;;;;;;;;5.48;100.00;102887.59;5036568;28;19947;-78
2023/12/15 03:40:05;;;;;;;;;;;;;;;5.49;100.00;102891.97;5068877;28;20320;-78
2023/12/15 03:42:31;;;;;;;;;;;;;;;5.50;100.00;102891.13;5067118;28;19947;-78
2023/12/15 03:44:57;;;;;;;;;;;;;;;5.49;100.00;102892.84;5069814;28;19923;-78
2023/12/15 03:47:22;;;;;;;;;;;;;;;5.50;100.00;102889.44;5050263;28;20024;-79
2023/12/15 03:49:47;;;;;;;;;;;;;;;5.52;100.00;102900.78;5052416;28;19924;-78
2023/12/15 03:52:14;;;;;;;;;;;;;;;5.52;100.00;102900.78;5048023;28;20011;-78
2023/12/15 03:54:39;;;;;;;;;;;;;;;5.53;100.00;102899.97;5031105;28;20285;-78
2023/12/15 03:57:04;;;;;;;;;;;;;;;5.53;100.00;102894.75;5067816;28;20019;-78
2023/12/15 03:59:30;;;;;;;;;;;;;;;5.54;100.00;102896.50;5042466;28;19975;-78
2023/12/15 04:01:56;;;;;;;;;;;;;;;5.55;100.00;102903.50;5045430;28;20297;-78
2023/12/15 04:04:21;;;;;;;;;;;;;;;5.57;100.00;102905.28;5033200;28;19917;-78
2023/12/15 04:06:46;;;;;;;;;;;;;;;5.58;100.00;102907.06;5043266;28;20027;-78
2023/12/15 04:09:12;;;;;;;;;;;;;;;5.58;100.00;102907.06;5053559;28;20343;-78
2023/12/15 04:11:37;;;;;;;;;;;;;;;5.58;100.00;102905.34;5050701;28;19947;-78
2023/12/15 04:14:03;;;;;;;;;;;;;;;5.60;100.00;102903.69;5051720;28;19924;-78
2023/12/15 04:16:28;;;;;;;;;;;;;;;5.61;100.00;102917.59;5051490;28;20020;-78
2023/12/15 04:18:53;;;;;;;;;;;;;;;5.62;100.00;102917.66;5098334;22;19925;-76
2023/12/15 04:21:19;;;;;;;;;;;;;;;5.63;100.00;102927.25;5050491;28;20035;-75
2023/12/15 04:23:44;;;;;;;;;;;;;;;5.63;100.00;102921.13;5043123;28;20506;-76
2023/12/15 04:26:10;;;;;;;;;;;;;;;5.66;100.00;102935.19;5033509;28;20070;-76
2023/12/15 04:28:35;;;;;;;;;;;;;;;5.66;100.00;102939.47;5033344;28;19925;-75
2023/12/15 04:31:00;;;;;;;;;;;;;;;5.67;100.00;102936.06;5026366;28;19940;-77
2023/12/15 04:33:27;;;;;;;;;;;;;;;5.67;100.00;102923.94;5060001;28;20007;-77
2023/12/15 04:35:52;;;;;;;;;;;;;;;5.70;100.00;102934.50;5041095;28;20496;-77
2023/12/15 04:38:17;;;;;;;;;;;;;;;5.71;100.00;102937.97;5035570;28;20008;-77
2023/12/15 04:40:42;;;;;;;;;;;;;;;5.70;100.00;102944.00;5038134;28;19921;-77
2023/12/15 04:43:09;;;;;;;;;;;;;;;5.71;100.00;102948.38;5037824;28;19917;-77
2023/12/15 04:45:34;;;;;;;;;;;;;;;5.72;100.00;102955.38;5035451;28;19921;-77
2023/12/15 04:47:59;;;;;;;;;;;;;;;5.72;100.00;102940.63;5110462;23;19992;-77
2023/12/15 04:50:25;;;;;;;;;;;;;;;5.73;100.00;102947.63;5059911;28;20324;-79
2023/12/15 04:52:50;;;;;;;;;;;;;;;5.73;100.00;102950.22;5061344;28;19934;-79
2023/12/15 04:55:15;;;;;;;;;;;;;;;5.74;100.00;102953.69;5104412;23;20394;-78
2023/12/15 04:57:40;;;;;;;;;;;;;;;5.75;100.00;102946.78;5090877;28;19923;-79
2023/12/15 05:00:13;;;;;;;;;;;;;;;5.77;100.00;102959.03;5055847;28;20261;-79
2023/12/15 05:02:40;;;;;;;;;;;;;;;5.77;100.00;102955.56;5292153;23;19923;-77
2023/12/15 05:05:07;;;;;;;;;;;;;;;5.79;100.00;102960.00;5111328;27;19966;-77
2023/12/15 05:07:33;;;;;;;;;;;;;;;5.79;100.00;102949.59;5104619;27;19923;-76
2023/12/15 05:09:58;;;;;;;;;;;;;;;5.80;100.00;102945.25;5081251;27;19916;-77
2023/12/15 05:12:24;;;;;;;;;;;;;;;5.78;100.00;102942.59;5092040;28;19935;-77
2023/12/15 05:14:49;;;;;;;;;;;;;;;5.79;100.00;102947.00;5094493;27;19923;-77
2023/12/15 05:17:14;;;;;;;;;;;;;;;5.79;100.00;102946.09;5088012;27;19945;-76
2023/12/15 05:19:39;;;;;;;;;;;;;;;5.79;100.00;102962.59;5082451;27;19920;-76
2023/12/15 05:22:05;;;;;;;;;;;;;;;5.80;100.00;102966.09;5079520;28;19920;-77
2023/12/15 05:24:33;;;;;;;;;;;;;;;5.82;100.00;102970.53;5075054;27;20004;-77
2023/12/15 05:26:58;;;;;;;;;;;;;;;5.82;100.00;102978.34;5093209;27;20390;-76
2023/12/15 05:29:24;;;;;;;;;;;;;;;5.83;100.00;102981.81;5072394;28;20016;-77
2023/12/15 05:31:49;;;;;;;;;;;;;;;5.84;100.00;102986.19;5093248;28;20113;-79
2023/12/15 05:34:14;;;;;;;;;;;;;;;5.85;100.00;102986.28;5080626;28;19957;-78
2023/12/15 05:36:40;;;;;;;;;;;;;;;5.88;100.00;102999.41;5084186;27;20019;-78
2023/12/15 05:39:05;;;;;;;;;;;;;;;5.90;100.00;103004.66;5080119;28;19992;-78
2023/12/15 05:41:30;;;;;;;;;;;;;;;5.89;100.00;103003.78;5081787;28;19966;-78
2023/12/15 05:43:57;;;;;;;;;;;;;;;5.91;100.00;103003.84;5087285;27;20391;-78
2023/12/15 05:46:22;;;;;;;;;;;;;;;5.93;100.00;103014.31;5095456;28;19920;-79
2023/12/15 05:48:47;;;;;;;;;;;;;;;5.92;100.00;103022.94;5073319;27;20391;-79
2023/12/15 05:51:13;;;;;;;;;;;;;;;5.94;100.00;103018.72;5092484;28;20377;-77
2023/12/15 05:53:38;;;;;;;;;;;;;;;5.93;100.00;103019.53;5077230;27;20301;-78
2023/12/15 05:56:04;;;;;;;;;;;;;;;5.95;100.00;103021.38;5082699;27;20344;-77
2023/12/15 05:58:29;;;;;;;;;;;;;;;5.97;100.00;103021.44;5105990;27;19923;-77
2023/12/15 06:00:55;;;;;;;;;;;;;;;5.96;100.00;103015.38;5086500;27;19923;-76
2023/12/15 06:03:21;;;;;;;;;;;;;;;6.00;100.00;103022.47;5106150;27;19937;-80
2023/12/15 06:05:47;;;;;;;;;;;;;;;5.98;100.00;103018.06;5100094;27;19977;-80
2023/12/15 06:08:13;;;;;;;;;;;;;;;5.98;100.00;103013.72;5079060;28;19927;-80
2023/12/15 06:10:39;;;;;;;;;;;;;;;6.00;100.00;103011.19;5087057;27;19923;-79
2023/12/15 06:13:06;;;;;;;;;;;;;;;6.00;100.00;103013.78;5083639;28;19928;-80
2023/12/15 06:15:33;;;;;;;;;;;;;;;5.99;100.00;103014.59;5084740;28;19924;-80
2023/12/15 06:18:00;;;;;;;;;;;;;;;6.01;100.00;103015.59;5092062;28;19919;-81
2023/12/15 06:20:26;;;;;;;;;;;;;;;6.01;100.00;103016.47;5083105;27;19919;-80
2023/12/15 06:22:53;;;;;;;;;;;;;;;6.03;100.00;103029.53;5085405;28;19916;-80
2023/12/15 06:25:18;;;;;;;;;;;;;;;6.03;100.00;103016.53;5095145;27;20437;-80
2023/12/15 06:27:43;;;;;;;;;;;;;;;6.04;100.00;103026.13;5077395;28;20018;-77
2023/12/15 06:30:09;;;;;;;;;;;;;;;6.06;100.00;103032.25;5094429;28;19916;-78
2023/12/15 06:32:37;;;;;;;;;;;;;;;6.05;100.00;103036.59;5095787;28;19969;-79
2023/12/15 06:35:02;;;;;;;;;;;;;;;6.06;100.00;103037.47;5079319;28;19916;-78
2023/12/15 06:37:27;;;;;;;;;;;;;;;6.06;100.00;103053.09;5078039;28;19927;-78
2023/12/15 06:39:53;;;;;;;;;;;;;;;6.06;100.00;103040.97;5080927;27;20273;-80
2023/12/15 06:42:20;;;;;;;;;;;;;;;6.07;100.00;103054.88;5101762;27;19923;-80
2023/12/15 06:44:46;;;;;;;;;;;;;;;6.08;100.00;103051.47;5084068;28;19920;-78
2023/12/15 06:47:12;;;;;;;;;;;;;;;6.10;100.00;103057.59;5076451;28;20099;-78
2023/12/15 06:49:37;;;;;;;;;;;;;;;6.10;100.00;103048.91;5073617;28;19955;-78
2023/12/15 06:52:03;;;;;;;;;;;;;;;6.10;100.00;103044.59;5076188;28;19923;-78
2023/12/15 06:54:29;;;;;;;;;;;;;;;6.12;100.00;103058.56;5090269;28;19919;-78
2023/12/15 06:56:54;;;;;;;;;;;;;;;6.14;100.00;103067.31;5074381;28;19924;-78
2023/12/15 06:59:19;;;;;;;;;;;;;;;6.13;100.00;103059.44;5072993;28;20296;-78
2023/12/15 07:01:45;;;;;;;;;;;;;;;6.14;100.00;103063.84;5082879;28;19946;-79
2023/12/15 07:04:10;;;;;;;;;;;;;;;6.14;100.00;103075.13;5085376;28;19928;-80
2023/12/15 07:06:35;;;;;;;;;;;;;;;6.16;100.00;103070.91;5074639;28;19920;-79
2023/12/15 07:09:00;;;;;;;;;;;;;;;6.18;100.00;103090.06;5067803;28;19924;-80
2023/12/15 07:11:26;;;;;;;;;;;;;;;6.19;100.00;103088.34;5071500;28;19929;-80
2023/12/15 07:13:51;;;;;;;;;;;;;;;6.19;100.00;103091.84;5074610;28;19916;-80
2023/12/15 07:16:16;;;;;;;;;;;;;;;6.19;100.00;103097.06;5074890;28;20282;-80
2023/12/15 07:18:42;;;;;;;;;;;;;;;6.21;100.00;103094.53;5089870;28;20288;-80
2023/12/15 07:21:08;;;;;;;;;;;;;;;6.22;100.00;103099.78;5071268;28;19920;-80
2023/12/15 07:23:34;;;;;;;;;;;;;;;6.23;100.00;103095.47;5070500;28;19920;-80
2023/12/15 07:25:59;;;;;;;;;;;;;;;6.22;100.00;103099.78;5072432;28;20360;-80
2023/12/15 07:28:25;;;;;;;;;;;;;;;6.23;100.00;103104.19;5074298;28;19970;-80
2023/12/15 07:30:50;;;;;;;;;;;;;;;6.22;100.00;103112.81;5091853;28;19961;-80
2023/12/15 07:33:16;;;;;;;;;;;;;;;6.23;100.00;103119.81;5072304;28;20382;-80
2023/12/15 07:35:41;;;;;;;;;;;;;;;6.23;100.00;103112.00;5074525;28;20487;-80
2023/12/15 07:38:08;;;;;;;;;;;;;;;6.24;100.00;103113.75;5067593;28;19920;-80
2023/12/15 07:40:35;;;;;;;;;;;;;;;6.23;100.00;103119.81;5072941;28;19920;-79
2023/12/15 07:43:02;;;;;;;;;;;;;;;6.26;100.00;103123.34;5081609;28;19985;-78
2023/12/15 07:45:27;;;;;;;;;;;;;;;6.26;100.00;103128.56;5071498;28;19916;-78
2023/12/15 07:47:54;;;;;;;;;;;;;;;6.27;100.00;103130.34;5069419;28;20361;-78
2023/12/15 07:50:19;;;;;;;;;;;;;;;6.28;100.00;103121.69;5075185;28;19927;-78
2023/12/15 07:52:45;;;;;;;;;;;;;;;6.28;100.00;103127.81;5090650;28;19924;-78
2023/12/15 07:55:10;;;;;;;;;;;;;;;6.29;100.00;103136.50;5091639;28;19929;-78
2023/12/15 07:57:35;;;;;;;;;;;;;;;6.30;100.00;103136.56;5073483;28;19923;-78
2023/12/15 08:00:01;;;;;;;;;;;;;;;6.31;100.00;103145.28;5071830;28;19920;-78
2023/12/15 08:02:27;;;;;;;;;;;;;;;6.32;100.00;103150.56;5074190;28;19928;-78
2023/12/15 08:04:52;;;;;;;;;;;;;;;6.33;100.00;103162.72;5065289;28;19920;-78
2023/12/15 08:07:17;;;;;;;;;;;;;;;6.36;100.00;103162.84;5054062;28;19970;-78
2023/12/15 08:09:43;;;;;;;;;;;;;;;6.37;100.00;103156.81;5054300;28;20352;-78
2023/12/15 08:12:12;;;;;;;;;;;;;;;6.40;100.00;103164.75;5053824;28;19959;-78
2023/12/15 08:14:39;;;;;;;;;;;;;;;6.42;100.00;103167.44;5053943;28;19924;-78
2023/12/15 08:17:05;;;;;;;;;;;;;;;6.43;100.00;103166.63;5070725;28;19919;-78
2023/12/15 08:19:32;;;;;;;;;;;;;;;6.46;100.00;103187.59;5073146;28;19920;-77
2023/12/15 08:21:59;;;;;;;;;;;;;;;6.47;100.00;103181.56;5090548;28;19912;-78
2023/12/15 08:24:24;;;;;;;;;;;;;;;6.48;100.00;103198.97;5067812;28;20302;-78
2023/12/15 08:26:50;;;;;;;;;;;;;;;6.50;100.00;103197.31;5072043;28;19928;-78
2023/12/15 08:29:15;;;;;;;;;;;;;;;6.52;100.00;103199.97;5053404;28;19920;-77
2023/12/15 08:31:40;;;;;;;;;;;;;;;6.52;100.00;103195.69;5055460;28;19925;-77
2023/12/15 08:34:06;;;;;;;;;;;;;;;6.54;100.00;103203.56;5073300;28;19950;-77
2023/12/15 08:36:31;;;;;;;;;;;;;;;6.57;100.00;103214.97;5059927;28;19959;-78
2023/12/15 08:38:56;;;;;;;;;;;;;;;6.60;100.00;103211.63;5077576;28;19966;-77
2023/12/15 08:41:21;;;;;;;;;;;;;;;6.64;100.00;103220.44;5077063;28;19970;-78
2023/12/15 08:43:47;;;;;;;;;;;;;;;6.68;100.00;103220.66;5093529;28;19919;-78
2023/12/15 08:46:12;;;;;;;;;;;;;;;6.71;100.00;103232.91;5078025;28;19969;-80
2023/12/15 08:48:37;;;;;;;;;;;;;;;6.73;100.00;103236.50;5073618;28;19927;-80
2023/12/15 08:51:03;;;;;;;;;;;;;;;6.74;100.00;103248.72;5076722;28;19922;-80
2023/12/15 08:53:28;;;;;;;;;;;;;;;6.77;100.00;103254.03;5078901;28;19920;-80
2023/12/15 08:55:53;;;;;;;;;;;;;;;6.77;100.00;103254.03;5073203;28;19924;-80
2023/12/15 08:58:21;;;;;;;;;;;;;;;6.80;100.00;103253.28;5079220;28;19985;-79
2023/12/15 09:00:47;;;;;;;;;;;;;;;6.83;100.00;103249.09;5097567;28;19916;-80
2023/12/15 09:03:12;;;;;;;;;;;;;;;6.86;100.00;103249.22;5079635;28;20349;-78
2023/12/15 09:05:37;;;;;;;;;;;;;;;6.93;100.00;103259.06;5093211;28;19923;-78
2023/12/15 09:08:03;;;;;;;;;;;;;;;7.00;100.00;103260.22;5096662;28;19919;-78
2023/12/15 09:10:34;;;;;;;;;;;;;;;7.01;100.00;103254.19;5097784;28;19920;-78
2023/12/15 09:13:03;;;;;;;;;;;;;;;7.04;100.00;103259.53;5096155;28;19962;-77
2023/12/15 09:15:29;;;;;;;;;;;;;;;7.06;100.00;103259.59;5095434;28;20012;-78
2023/12/15 09:17:54;;;;;;;;;;;;;;;7.11;100.00;103260.66;5079560;28;20058;-77
2023/12/15 09:20:20;;;;;;;;;;;;;;;7.14;100.00;103259.91;5077947;28;20187;-78
2023/12/15 09:22:46;;;;;;;;;;;;;;;7.22;100.00;103268.94;5088767;28;19942;-77
2023/12/15 09:25:11;;;;;;;;;;;;;;;7.26;100.00;103271.72;5074198;28;20139;-77
2023/12/15 09:27:37;;;;;;;;;;;;;;;7.33;100.00;103278.09;5059126;28;20015;-78
2023/12/15 09:30:02;;;;;;;;;;;;;;;7.38;100.00;103275.66;5060033;28;20042;-78
2023/12/15 09:32:28;;;;;;;;;;;;;;;7.44;100.00;103287.25;5076786;28;19924;-78
2023/12/15 09:34:53;;;;;;;;;;;;;;;7.52;100.00;103297.97;5060260;28;19917;-78
2023/12/15 09:37:19;;;;;;;;;;;;;;;7.58;100.00;103295.59;5064682;28;19920;-77
2023/12/15 09:39:44;;;;;;;;;;;;;;;7.63;100.00;103294.09;5062135;28;20019;-77
2023/12/15 09:42:09;;;;;;;;;;;;;;;7.69;100.00;103311.72;5059705;28;19952;-77
2023/12/15 09:44:35;;;;;;;;;;;;;;;7.73;100.00;103320.53;5059882;28;20023;-78
2023/12/15 09:47:01;;;;;;;;;;;;;;;7.72;100.00;103324.88;5077301;28;19962;-78
2023/12/15 09:49:27;;;;;;;;;;;;;;;7.72;100.00;103330.09;5093094;28;19919;-78
2023/12/15 09:51:58;;;;;;;;;;;;;;;7.70;100.00;103336.09;5076490;28;19920;-78
2023/12/15 09:54:23;;;;;;;;;;;;;;;7.66;100.00;103342.91;5093729;28;19947;-78
2023/12/15 09:56:48;;;;;;;;;;;;;;;7.66;100.00;103352.44;5093446;28;19963;-78
2023/12/15 09:59:14;;;;;;;;;;;;;;;7.64;100.00;103352.38;5076024;28;19923;-78
2023/12/15 10:01:39;;;;;;;;;;;;;;;7.63;100.00;103351.50;5066253;28;20019;-78
2023/12/15 10:04:07;;;;;;;;;;;;;;;7.60;100.00;103345.25;5056894;28;19928;-79
2023/12/15 10:06:35;;;;;;;;;;;;;;;7.61;100.00;103352.25;5074281;28;19958;-78
2023/12/15 10:09:00;;;;;;;;;;;;;;;7.61;100.00;103360.09;5073182;28;19917;-77
2023/12/15 10:11:27;;;;;;;;;;;;;;;7.62;100.00;103352.31;5067575;28;20031;-78
2023/12/15 10:13:53;;;;;;;;;;;;;;;7.66;100.00;103355.06;5076171;28;19916;-78
2023/12/15 10:16:19;;;;;;;;;;;;;;;7.69;100.00;103370.88;5093289;28;19912;-78
2023/12/15 10:18:44;;;;;;;;;;;;;;;7.74;100.00;103374.53;5093692;28;19916;-78
2023/12/15 10:21:09;;;;;;;;;;;;;;;7.69;100.00;103376.09;5088638;28;20432;-78
2023/12/15 10:23:36;;;;;;;;;;;;;;;7.66;100.00;103381.16;5093025;28;19924;-77
2023/12/15 10:26:05;;;;;;;;;;;;;;;7.66;100.00;103381.16;5076096;28;19928;-77
2023/12/15 10:28:38;;;;;;;;;;;;;;;7.68;100.00;103385.63;5076357;28;19927;-77
2023/12/15 10:31:04;;;;;;;;;;;;;;;7.70;100.00;103390.91;5087413;28;20305;-77
2023/12/15 10:33:30;;;;;;;;;;;;;;;7.78;100.00;103389.50;5056336;28;19916;-77
2023/12/15 10:35:57;;;;;;;;;;;;;;;7.81;100.00;103392.22;5072769;28;20319;-77
2023/12/15 10:38:22;;;;;;;;;;;;;;;7.84;100.00;103397.56;5075833;28;19990;-78
2023/12/15 10:40:48;;;;;;;;;;;;;;;7.88;100.00;103401.22;5076374;28;20044;-77
2023/12/15 10:43:16;;;;;;;;;;;;;;;7.89;100.00;103411.72;5092020;28;20050;-77
2023/12/15 10:45:43;;;;;;;;;;;;;;;7.89;100.00;103424.75;5093279;28;19939;-78
2023/12/15 10:48:10;;;;;;;;;;;;;;;7.85;100.00;103420.25;5092566;28;19912;-78
2023/12/15 10:50:35;;;;;;;;;;;;;;;7.83;100.00;103427.13;5092917;28;19924;-77
2023/12/15 10:53:02;;;;;;;;;;;;;;;7.82;100.00;103430.56;5091433;28;20327;-78
2023/12/15 10:55:28;;;;;;;;;;;;;;;7.83;100.00;103429.75;5076185;28;19922;-77
2023/12/15 10:57:54;;;;;;;;;;;;;;;7.85;100.00;103441.13;5091319;28;19916;-77
2023/12/15 11:00:19;;;;;;;;;;;;;;;7.86;100.00;103435.09;5075852;28;20288;-78
2023/12/15 11:02:46;;;;;;;;;;;;;;;7.89;100.00;103443.03;5086081;28;19931;-77
2023/12/15 11:05:11;;;;;;;;;;;;;;;7.91;100.00;103441.38;5055897;28;19928;-77
2023/12/15 11:07:36;;;;;;;;;;;;;;;7.92;100.00;103448.38;5071650;28;19912;-78
2023/12/15 11:10:03;;;;;;;;;;;;;;;7.92;100.00;103445.78;5055478;28;19923;-78
2023/12/15 11:12:29;;;;;;;;;;;;;;;7.91;100.00;103458.75;5055197;28;19920;-78
2023/12/15 11:15:03;;;;;;;;;;;;;;;7.87;100.00;103455.13;5071436;28;19916;-78
2023/12/15 11:17:29;;;;;;;;;;;;;;;7.85;100.00;103445.47;5071976;28;19916;-78
2023/12/15 11:20:02;;;;;;;;;;;;;;;7.82;100.00;103456.66;5072231;28;19919;-78
2023/12/15 11:22:28;;;;;;;;;;;;;;;7.79;100.00;103461.75;5085392;28;19913;-78
2023/12/15 11:24:54;;;;;;;;;;;;;;;7.79;100.00;103456.53;5075366;28;19927;-78
2023/12/15 11:27:20;;;;;;;;;;;;;;;7.79;100.00;103475.69;5091681;28;20281;-78
2023/12/15 11:29:45;;;;;;;;;;;;;;;7.82;100.00;103471.44;5091585;28;19923;-78
2023/12/15 11:32:29;;;;;;;;;;;;;;;7.80;100.00;103476.56;5074974;28;20015;-78
2023/12/15 11:34:55;;;;;;;;;;;;;;;7.80;100.00;103464.44;5075076;28;19916;-78
2023/12/15 11:37:23;;;;;;;;;;;;;;;7.83;100.00;103461.06;5054451;28;19977;-77
2023/12/15 11:39:49;;;;;;;;;;;;;;;7.84;100.00;103460.22;5071467;28;19912;-77
2023/12/15 11:42:15;;;;;;;;;;;;;;;7.86;100.00;103450.75;5088307;28;19968;-77
2023/12/15 11:44:43;;;;;;;;;;;;;;;7.90;100.00;103450.06;5076815;28;19920;-78
2023/12/15 11:47:09;;;;;;;;;;;;;;;7.94;100.00;103446.75;5071416;28;19917;-78
2023/12/15 11:49:42;;;;;;;;;;;;;;;8.03;100.00;103429.66;5071506;28;19917;-78
2023/12/15 11:52:10;;;;;;;;;;;;;;;8.12;100.00;103435.25;5062522;28;19921;-77
2023/12/15 11:54:36;;;;;;;;;;;;;;;8.20;100.00;103430.31;5067583;28;19920;-77
2023/12/15 11:57:05;;;;;;;;;;;;;;;8.28;100.00;103431.53;5086595;28;20373;-78
2023/12/15 11:59:43;;;;;;;;;;;;;;;8.36;100.00;103442.25;5071217;28;20313;-78
2023/12/15 12:02:12;;;;;;;;;;;;;;;8.41;100.00;103435.50;5071081;28;19920;-77
2023/12/15 12:04:37;;;;;;;;;;;;;;;8.48;100.00;103429.72;5082674;28;19965;-77
2023/12/15 12:07:02;;;;;;;;;;;;;;;8.53;100.00;103429.91;5090851;28;19920;-77
2023/12/15 12:09:28;;;;;;;;;;;;;;;8.57;100.00;103422.22;5091299;28;19916;-77
2023/12/15 12:11:56;;;;;;;;;;;;;;;8.60;100.00;103413.59;5073266;28;20293;-77
2023/12/15 12:14:21;;;;;;;;;;;;;;;8.62;100.00;103412.84;5070244;28;19924;-77
2023/12/15 12:16:48;;;;;;;;;;;;;;;8.68;100.00;103404.34;5054699;28;19916;-77
2023/12/15 12:19:13;;;;;;;;;;;;;;;8.71;100.00;103407.06;5054360;28;19930;-77
2023/12/15 12:21:38;;;;;;;;;;;;;;;8.81;100.00;103408.31;5054378;28;20015;-77
2023/12/15 12:24:04;;;;;;;;;;;;;;;8.91;100.00;103401.69;5054702;28;19920;-77
2023/12/15 12:26:30;;;;;;;;;;;;;;;9.00;100.00;103423.81;5070602;28;20322;-77
2023/12/15 12:28:55;;;;;;;;;;;;;;;9.06;100.00;103440.56;5053540;28;20026;-78